Time;durP1;ratioP1;P1;durP2;ratioP2;P2;SDS_P1;SDS_P2;PMS_P1;PMS_P2;Temp;Humidity;BMP_temperature;BMP_pressure;BME280_temperature;BME280_humidity;BME280_pressure;Samples;Min_cycle;Max_cycle;Signal;HPM_P1;HPM_P2
2021/01/07 00:00:07;;;;;;;1.30;1.20;;;;;;;1.72;100.00;98757.44;3800329;77;392932;-76
2021/01/07 00:05:29;;;;;;;5.97;1.13;;;;;;;1.61;100.00;98755.02;3800570;76;383807;-76
2021/01/07 00:10:50;;;;;;;1.90;1.73;;;;;;;1.74;100.00;98750.30;3799650;77;396025;-76
2021/01/07 00:16:11;;;;;;;1.50;0.97;;;;;;;1.74;100.00;98758.44;3800286;77;394064;-76
2021/01/07 00:21:32;;;;;;;0.90;0.70;;;;;;;1.79;100.00;98756.26;3801144;76;387739;-76
2021/01/07 00:26:53;;;;;;;1.23;0.80;;;;;;;1.72;100.00;98752.02;3800969;76;383583;-76
2021/01/07 00:32:15;;;;;;;1.43;1.33;;;;;;;1.74;100.00;98761.92;3800688;76;383576;-77
2021/01/07 00:37:36;;;;;;;1.67;0.73;;;;;;;1.66;100.00;98764.81;3800656;77;387750;-77
2021/01/07 00:42:58;;;;;;;0.93;0.83;;;;;;;1.68;100.00;98772.05;3800909;76;389858;-76
2021/01/07 00:48:19;;;;;;;0.90;0.80;;;;;;;1.66;100.00;98768.89;3801477;77;383823;-76
2021/01/07 00:53:40;;;;;;;1.50;1.10;;;;;;;1.81;100.00;98764.84;3800440;77;388723;-76
2021/01/07 00:59:02;;;;;;;1.43;1.33;;;;;;;1.74;100.00;98770.64;3799968;77;396132;-76
2021/01/07 01:04:23;;;;;;;2.50;1.10;;;;;;;1.78;100.00;98772.30;3800081;76;394190;-76
2021/01/07 01:09:44;;;;;;;0.90;0.80;;;;;;;1.79;100.00;98778.50;3801354;77;383552;-76
2021/01/07 01:15:08;;;;;;;5.90;1.53;;;;;;;1.79;100.00;98782.57;3800425;77;392139;-76
2021/01/07 01:20:29;;;;;;;4.10;2.50;;;;;;;1.73;100.00;98786.69;3799788;77;396163;-76
2021/01/07 01:25:50;;;;;;;0.90;0.70;;;;;;;1.69;100.00;98793.95;3801148;77;383788;-76
2021/01/07 01:31:12;;;;;;;4.97;2.63;;;;;;;1.65;100.00;98799.84;3799724;76;396343;-77
2021/01/07 01:36:33;;;;;;;2.43;1.73;;;;;;;1.63;100.00;98796.68;3800411;76;389819;-77
2021/01/07 01:41:54;;;;;;;1.27;1.17;;;;;;;1.56;100.00;98795.72;3800442;77;388045;-77
2021/01/07 01:47:15;;;;;;;4.20;2.00;;;;;;;1.55;100.00;98801.69;3799822;76;396089;-77
2021/01/07 01:52:37;;;;;;;0.90;0.70;;;;;;;1.61;100.00;98796.26;3800864;77;387774;-76
2021/01/07 01:58:00;;;;;;;2.00;0.90;;;;;;;1.63;100.00;98798.84;3800176;76;390845;-77
2021/01/07 02:03:21;;;;;;;10.63;2.50;;;;;;;1.58;100.00;98798.30;3800619;76;383883;-77
2021/01/07 02:08:44;;;;;;;6.13;2.20;;;;;;;1.52;100.00;98795.63;3800041;76;391883;-76
2021/01/07 02:14:06;;;;;;;1.70;1.33;;;;;;;1.55;100.00;98793.56;3800754;77;389815;-76
2021/01/07 02:19:27;;;;;;;3.13;1.93;;;;;;;1.61;100.00;98799.75;3800633;76;383549;-77
2021/01/07 02:24:48;;;;;;;1.50;1.40;;;;;;;1.61;100.00;98793.55;3800023;76;396363;-76
2021/01/07 02:30:10;;;;;;;2.07;1.90;;;;;;;1.47;100.00;98795.09;3799528;77;396077;-77
2021/01/07 02:35:31;;;;;;;3.27;2.60;;;;;;;1.53;100.00;98790.44;3800256;76;383808;-78
2021/01/07 02:40:52;;;;;;;6.40;2.40;;;;;;;1.55;100.00;98791.43;3799889;77;393997;-76
2021/01/07 02:46:13;;;;;;;4.93;2.03;;;;;;;1.48;100.00;98792.02;3800076;76;393140;-77
2021/01/07 02:51:34;;;;;;;0.90;0.70;;;;;;;1.43;100.00;98786.87;3800874;76;389904;-77
2021/01/07 02:56:55;;;;;;;1.70;1.60;;;;;;;1.40;100.00;98784.84;3799730;77;396277;-77
2021/01/07 03:02:17;;;;;;;1.87;1.77;;;;;;;1.45;100.00;98785.95;3800118;77;396315;-77
2021/01/07 03:07:38;;;;;;;2.87;2.67;;;;;;;1.38;100.00;98781.67;3799944;77;395240;-77
2021/01/07 03:12:59;;;;;;;2.43;2.23;;;;;;;1.33;100.00;98779.23;3800282;77;395227;-77
2021/01/07 03:18:20;;;;;;;2.50;1.53;;;;;;;1.38;100.00;98780.33;3799842;76;396328;-77
2021/01/07 03:23:41;;;;;;;6.57;2.10;;;;;;;1.32;100.00;98784.42;3800201;77;393985;-77
2021/01/07 03:29:04;;;;;;;5.27;2.03;;;;;;;1.29;100.00;98781.08;3800156;77;388781;-77
2021/01/07 03:34:25;;;;;;;2.67;2.57;;;;;;;1.31;100.00;98781.49;3800090;76;396080;-77
2021/01/07 03:39:46;;;;;;;4.00;1.23;;;;;;;1.28;100.00;98776.78;3800215;77;396021;-76
2021/01/07 03:45:08;;;;;;;2.03;1.93;;;;;;;1.29;100.00;98779.72;3800669;76;387746;-75
2021/01/07 03:50:29;;;;;;;6.43;1.57;;;;;;;1.29;100.00;98781.63;3800319;77;395131;-76
2021/01/07 03:55:51;;;;;;;2.23;2.13;;;;;;;1.23;100.00;98783.02;3800166;77;396159;-76
2021/01/07 04:01:12;;;;;;;5.30;1.97;;;;;;;1.20;100.00;98784.50;3799797;77;396104;-76
2021/01/07 04:06:33;;;;;;;0.80;0.60;;;;;;;1.17;100.00;98780.34;3801167;77;383575;-76
2021/01/07 04:11:54;;;;;;;1.73;1.37;;;;;;;1.21;100.00;98779.27;3799982;76;396169;-76
2021/01/07 04:17:15;;;;;;;10.10;2.23;;;;;;;1.18;100.00;98775.11;3800897;76;385704;-76
2021/01/07 04:22:41;;;;;;;2.80;2.67;;;;;;;1.20;100.00;98775.56;3800333;77;395282;-76
2021/01/07 04:28:02;;;;;;;7.70;2.47;;;;;;;1.14;100.00;98768.25;3800550;77;383805;-76
2021/01/07 04:33:23;;;;;;;0.90;0.77;;;;;;;1.11;100.00;98778.44;3801454;77;390067;-77
2021/01/07 04:38:45;;;;;;;1.93;1.60;;;;;;;1.14;100.00;98778.31;3800150;76;396328;-77
2021/01/07 04:44:07;;;;;;;1.07;0.97;;;;;;;1.10;100.00;98770.08;3800939;77;383848;-76
2021/01/07 04:49:28;;;;;;;1.87;1.37;;;;;;;1.12;100.00;98770.53;3799937;77;395252;-76
2021/01/07 04:54:54;;;;;;;1.00;0.90;;;;;;;1.11;100.00;98766.25;3800320;76;391856;-76
2021/01/07 05:00:16;;;;;;;2.10;2.00;;;;;;;1.08;100.00;98775.05;3800398;77;396036;-76
2021/01/07 05:05:37;;;;;;;2.37;0.97;;;;;;;1.12;100.00;98771.89;3800919;77;383572;-76
2021/01/07 05:10:58;;;;;;;1.57;1.00;;;;;;;1.06;100.00;98773.24;3800773;76;387925;-76
2021/01/07 05:16:22;;;;;;;1.53;1.43;;;;;;;1.12;100.00;98775.95;3799906;76;396075;-76
2021/01/07 05:21:43;;;;;;;1.23;1.13;;;;;;;1.06;100.00;98777.89;3800140;76;393994;-77
2021/01/07 05:27:15;;;;;;;2.00;1.90;;;;;;;1.01;100.00;98778.92;3799595;77;396066;-76
2021/01/07 05:32:39;;;;;;;2.60;1.43;;;;;;;1.04;100.00;98785.02;3800201;76;394009;-76
2021/01/07 05:38:03;;;;;;;1.87;1.77;;;;;;;1.08;100.00;98775.05;3799925;76;391914;-77
2021/01/07 05:43:26;;;;;;;4.77;1.10;;;;;;;1.02;100.00;98776.98;3800282;76;394248;-76
2021/01/07 05:48:47;;;;;;;0.80;0.40;;;;;;;1.02;100.00;98767.51;3801045;77;383533;-76
2021/01/07 05:54:09;;;;;;;8.58;3.87;;;;;;;1.10;100.00;98766.57;3747364;77;3736870;-76
2021/01/07 05:59:33;;;;;;;1.00;0.70;;;;;;;1.10;100.00;98766.57;3800617;77;385624;-76
2021/01/07 06:04:56;;;;;;;1.30;1.20;;;;;;;1.00;100.00;98773.86;3799868;77;395052;-75
2021/01/07 06:10:17;;;;;;;1.20;1.10;;;;;;;1.05;100.00;98782.50;3800654;76;387748;-76
2021/01/07 06:15:38;;;;;;;2.10;1.70;;;;;;;1.09;100.00;98781.27;3799487;76;396278;-77
2021/01/07 06:21:03;;;;;;;8.83;1.17;;;;;;;1.09;100.00;98782.05;3800027;76;391934;-76
2021/01/07 06:26:30;;;;;;;2.53;1.63;;;;;;;1.05;100.00;98793.91;3799955;77;393997;-76
2021/01/07 06:31:56;;;;;;;1.87;1.57;;;;;;;1.10;100.00;98786.33;3800597;76;391920;-76
2021/01/07 06:37:35;;;;;;;3.30;1.97;;;;;;;1.07;100.00;98791.66;3800231;76;394014;-76
2021/01/07 06:42:57;;;;;;;0.80;0.60;;;;;;;1.11;100.00;98798.75;3801714;77;383565;-76
2021/01/07 06:48:32;;;;;;;1.00;0.70;;;;;;;1.03;100.00;98802.94;3801413;77;389819;-76
2021/01/07 06:53:54;;;;;;;0.80;0.50;;;;;;;1.02;100.00;98810.84;3801591;76;383819;-76
2021/01/07 06:59:17;;;;;;;3.47;1.87;;;;;;;1.05;100.00;98812.29;3800665;76;396332;-76
2021/01/07 07:04:41;;;;;;;2.40;2.20;;;;;;;1.01;100.00;98805.23;3800359;77;396073;-77
2021/01/07 07:10:23;;;;;;;1.63;1.47;;;;;;;1.03;100.00;98808.36;3800713;77;393935;-76
2021/01/07 07:15:46;;;;;;;1.70;1.60;;;;;;;1.15;100.00;98817.81;3800576;77;396069;-76
2021/01/07 07:21:19;;;;;;;7.70;2.20;;;;;;;1.18;100.00;98811.69;3800503;77;393978;-77
2021/01/07 07:26:42;;;;;;;2.70;1.37;;;;;;;0.95;100.00;98814.70;3800387;77;396084;-75
2021/01/07 07:32:21;;;;;;;1.27;1.17;;;;;;;1.01;100.00;98815.48;3789961;76;392197;-76
2021/01/07 07:37:43;;;;;;;3.17;2.97;;;;;;;1.16;100.00;98818.03;3778111;76;396446;-76
2021/01/07 07:43:06;;;;;;;3.43;1.47;;;;;;;1.07;100.00;98816.80;3761008;77;396084;-75
2021/01/07 07:48:30;;;;;;;2.27;1.57;;;;;;;1.13;100.00;98826.26;3794124;77;393945;-74
2021/01/07 07:53:52;;;;;;;1.47;1.37;;;;;;;1.17;100.00;98825.03;3798455;76;392174;-74
2021/01/07 07:59:14;;;;;;;4.70;2.13;;;;;;;1.21;100.00;98825.33;3790022;76;395016;-75
2021/01/07 08:04:38;;;;;;;1.23;1.07;;;;;;;1.21;100.00;98836.16;3790774;77;383600;-75
2021/01/07 08:10:07;;;;;;;5.07;3.53;;;;;;;1.13;100.00;98842.51;3789790;77;396116;-75
2021/01/07 08:15:32;;;;;;;3.97;3.30;;;;;;;1.19;100.00;98848.48;3751845;77;396366;-76
2021/01/07 08:20:55;;;;;;;9.10;2.00;;;;;;;1.20;100.00;98844.09;3789533;77;396117;-75
2021/01/07 08:26:27;;;;;;;3.57;3.27;;;;;;;1.07;100.00;98852.02;3789386;77;396020;-75
2021/01/07 08:31:50;;;;;;;2.73;2.20;;;;;;;1.14;100.00;98856.86;3790881;76;392162;-76
2021/01/07 08:37:21;;;;;;;1.90;1.80;;;;;;;1.20;100.00;98858.19;3789493;77;394032;-75
2021/01/07 08:42:42;;;;;;;6.60;3.67;;;;;;;1.16;100.00;98850.54;3779198;77;396105;-75
2021/01/07 08:48:08;;;;;;;1.17;1.07;;;;;;;1.28;100.00;98859.97;3790279;77;383588;-76
2021/01/07 08:53:29;;;;;;;1.57;1.47;;;;;;;1.25;100.00;98853.32;3789413;77;396080;-76
2021/01/07 08:58:50;;;;;;;3.60;3.30;;;;;;;1.29;100.00;98850.70;3789204;77;396341;-76
2021/01/07 09:04:30;;;;;;;1.87;1.77;;;;;;;1.35;100.00;98858.27;3790257;76;396312;-76
2021/01/07 09:09:58;;;;;;;1.67;1.57;;;;;;;1.28;100.00;98853.19;3786825;77;396313;-75
2021/01/07 09:15:27;;;;;;;7.70;2.77;;;;;;;1.34;100.00;98854.52;3789736;77;394000;-76
2021/01/07 09:20:48;;;;;;;3.37;3.07;;;;;;;1.40;100.00;98853.16;3789661;77;394006;-75
2021/01/07 09:26:09;;;;;;;0.90;0.53;;;;;;;1.46;100.00;98853.13;3790615;77;383789;-75
2021/01/07 09:31:37;;;;;;;4.40;1.30;;;;;;;1.53;100.00;98851.42;3789380;77;396033;-74
2021/01/07 09:37:10;;;;;;;0.83;0.73;;;;;;;1.52;100.00;98853.91;3790311;77;383583;-74
2021/01/07 09:42:32;;;;;;;0.90;0.70;;;;;;;1.56;100.00;98842.58;3778205;77;385896;-75
2021/01/07 09:47:53;;;;;;;4.60;2.90;;;;;;;1.49;100.00;98842.97;3790009;77;391979;-75
2021/01/07 09:53:16;;;;;;;1.33;1.20;;;;;;;1.55;100.00;98851.84;3789689;77;394063;-75
2021/01/07 09:58:37;;;;;;;6.47;1.83;;;;;;;1.52;100.00;98848.48;3789768;77;383573;-75
2021/01/07 10:03:58;;;;;;;1.67;1.20;;;;;;;1.56;100.00;98840.45;3789656;77;383586;-75
2021/01/07 10:09:20;;;;;;;3.50;3.17;;;;;;;1.52;100.00;98839.00;3789407;77;396180;-75
2021/01/07 10:14:41;;;;;;;3.23;1.93;;;;;;;1.38;100.00;98833.75;3789119;77;396139;-75
2021/01/07 10:20:02;;;;;;;1.87;1.77;;;;;;;1.52;100.00;98830.06;3789535;77;396390;-75
2021/01/07 10:25:23;;;;;;;1.00;0.90;;;;;;;1.58;100.00;98824.83;3790349;77;383785;-75
2021/01/07 10:30:45;;;;;;;3.43;2.40;;;;;;;1.59;100.00;98831.05;3789126;77;396123;-75
2021/01/07 10:36:07;;;;;;;1.63;1.53;;;;;;;1.66;100.00;98829.30;3780354;76;391891;-75
2021/01/07 10:41:30;;;;;;;1.23;1.13;;;;;;;1.75;100.00;98828.58;3784786;77;390055;-75
2021/01/07 10:46:54;;;;;;;1.10;0.90;;;;;;;1.81;100.00;98822.34;3777867;77;391870;-75
2021/01/07 10:52:35;;;;;;;2.07;1.87;;;;;;;1.86;100.00;98820.16;3788624;77;396289;-75
2021/01/07 10:58:27;;;;;;;2.60;1.80;;;;;;;1.75;100.00;98818.31;3736577;77;394346;-75
2021/01/07 11:04:13;;;;;;;12.87;2.43;;;;;;;1.75;100.00;98817.73;3736562;77;396125;-75
2021/01/07 11:09:36;;;;;;;1.33;0.80;;;;;;;1.73;100.00;98805.66;3738048;76;391888;-75
2021/01/07 11:15:03;;;;;;;7.43;3.67;;;;;;;1.83;100.00;98802.45;3710444;78;394082;-75
2021/01/07 11:20:27;;;;;;;4.17;2.43;;;;;;;1.95;100.00;98789.59;3736971;76;396109;-75
2021/01/07 11:25:49;;;;;;;1.30;1.20;;;;;;;1.98;100.00;98787.52;3737557;77;390018;-76
2021/01/07 11:31:13;;;;;;;3.10;2.43;;;;;;;1.99;100.00;98782.31;3736530;77;396321;-76
2021/01/07 11:36:38;;;;;;;1.00;0.90;;;;;;;1.97;100.00;98779.19;3737906;77;383797;-75
2021/01/07 11:42:11;;;;;;;3.47;1.67;;;;;;;1.98;100.00;98771.83;3737367;76;396393;-75
2021/01/07 11:47:38;;;;;;;0.80;0.60;;;;;;;2.11;100.00;98758.37;3737886;77;383817;-75
2021/01/07 11:53:01;;;;;;;1.00;0.80;;;;;;;2.17;100.00;98752.92;3738474;76;387987;-75
2021/01/07 11:58:24;;;;;;;5.37;1.10;;;;;;;1.97;100.00;98753.42;3736856;77;396088;-76
2021/01/07 12:03:46;;;;;;;6.10;1.67;;;;;;;2.01;100.00;98738.00;3736942;77;393200;-75
2021/01/07 12:09:10;;;;;;;1.67;1.13;;;;;;;2.15;100.00;98735.61;3737060;77;395068;-75
2021/01/07 12:14:34;;;;;;;2.40;2.00;;;;;;;2.19;100.00;98732.42;3737427;76;396042;-75
2021/01/07 12:20:00;;;;;;;2.03;1.73;;;;;;;2.30;100.00;98734.02;3737525;76;391912;-75
2021/01/07 12:25:21;;;;;;;0.90;0.70;;;;;;;2.39;100.00;98728.60;3737719;77;388013;-76
2021/01/07 12:30:46;;;;;;;1.97;1.73;;;;;;;2.28;100.00;98720.81;3736895;77;389805;-75
2021/01/07 12:36:27;;;;;;;7.33;1.20;;;;;;;2.33;100.00;98723.24;3737037;77;393947;-75
2021/01/07 12:41:52;;;;;;;2.70;2.37;;;;;;;2.21;100.00;98709.00;3752773;76;396282;-75
2021/01/07 12:47:14;;;;;;;14.63;2.70;;;;;;;2.21;100.00;98709.00;3790547;76;393945;-75
2021/01/07 12:52:35;;;;;;;3.23;2.93;;;;;;;2.31;100.00;98703.03;3790063;76;396033;-75
2021/01/07 12:58:05;;;;;;;1.70;1.20;;;;;;;2.30;100.00;98712.31;3790888;76;389772;-75
2021/01/07 13:03:33;;;;;;;2.20;2.00;;;;;;;2.37;100.00;98705.90;3790154;77;394992;-75
2021/01/07 13:08:56;;;;;;;2.23;1.50;;;;;;;2.23;100.00;98704.02;3789803;76;396069;-75
2021/01/07 13:14:17;;;;;;;2.93;1.17;;;;;;;2.21;100.00;98709.00;3790481;76;389828;-75
2021/01/07 13:19:38;;;;;;;1.43;1.10;;;;;;;2.24;100.00;98715.09;3790385;76;396127;-75
2021/01/07 13:25:00;;;;;;;10.63;2.73;;;;;;;2.20;100.00;98712.85;3790089;76;396336;-75
2021/01/07 13:30:21;;;;;;;1.17;1.07;;;;;;;2.18;100.00;98714.57;3790536;76;392287;-75
2021/01/07 13:35:45;;;;;;;2.30;2.20;;;;;;;2.14;100.00;98719.70;3790260;76;396088;-75
2021/01/07 13:41:09;;;;;;;1.90;1.10;;;;;;;2.11;100.00;98714.41;3789833;76;396329;-75
2021/01/07 13:46:30;;;;;;;1.33;1.07;;;;;;;2.08;100.00;98711.62;3790850;77;383591;-75
2021/01/07 13:51:54;;;;;;;1.20;0.80;;;;;;;2.11;100.00;98714.97;3790865;76;383533;-75
2021/01/07 13:57:15;;;;;;;3.67;2.30;;;;;;;2.06;100.00;98713.31;3789850;76;396095;-75
2021/01/07 14:02:38;;;;;;;2.30;2.20;;;;;;;2.01;100.00;98718.24;3790203;76;387790;-76
2021/01/07 14:08:02;;;;;;;1.50;1.07;;;;;;;2.12;100.00;98721.41;3790513;77;393981;-75
2021/01/07 14:13:24;;;;;;;1.83;1.20;;;;;;;2.16;100.00;98717.42;3789994;76;396155;-75
2021/01/07 14:18:45;;;;;;;4.33;1.30;;;;;;;2.12;100.00;98717.90;3790167;76;394037;-76
2021/01/07 14:24:12;;;;;;;1.67;1.43;;;;;;;2.03;100.00;98719.45;3790444;76;388817;-75
2021/01/07 14:29:36;;;;;;;7.50;3.03;;;;;;;2.00;100.00;98719.38;3790384;76;392084;-76
2021/01/07 14:34:58;;;;;;;1.93;1.50;;;;;;;2.06;100.00;98713.89;3790309;76;391878;-75
2021/01/07 14:40:22;;;;;;;4.50;2.17;;;;;;;2.01;100.00;98711.45;3790552;76;383812;-76
2021/01/07 14:45:47;;;;;;;1.30;1.00;;;;;;;2.08;100.00;98710.27;3790474;76;392889;-75
2021/01/07 14:51:10;;;;;;;1.33;1.23;;;;;;;1.95;100.00;98705.52;3790603;76;396403;-75
2021/01/07 14:56:39;;;;;;;1.97;1.83;;;;;;;1.85;100.00;98701.20;3790133;76;396117;-76
2021/01/07 15:02:12;;;;;;;7.10;2.57;;;;;;;1.89;100.00;98710.99;3790256;76;391867;-76
2021/01/07 15:07:48;;;;;;;0.90;0.80;;;;;;;1.82;100.00;98708.09;3791059;77;385686;-76
2021/01/07 15:13:12;;;;;;;2.03;1.67;;;;;;;1.90;100.00;98711.77;3790200;76;395073;-76
2021/01/07 15:18:42;;;;;;;3.90;1.13;;;;;;;1.85;100.00;98724.25;3790608;76;388995;-76
2021/01/07 15:24:09;;;;;;;1.93;1.77;;;;;;;1.84;100.00;98718.60;3790144;76;396323;-76
2021/01/07 15:29:39;;;;;;;3.43;1.00;;;;;;;1.80;100.00;98721.78;3791096;76;383565;-76
2021/01/07 15:35:11;;;;;;;2.27;2.03;;;;;;;1.74;100.00;98732.09;3779000;77;394055;-75
2021/01/07 15:40:56;;;;;;;2.37;2.27;;;;;;;1.72;100.00;98729.53;3790771;76;391921;-76
2021/01/07 15:46:53;;;;;;;1.40;0.93;;;;;;;1.68;100.00;98732.16;3790888;76;393990;-76
2021/01/07 15:52:32;;;;;;;4.43;1.47;;;;;;;1.76;100.00;98733.13;3790091;77;396079;-77
2021/01/07 15:58:11;;;;;;;1.87;1.77;;;;;;;1.64;100.00;98733.20;3790379;76;391944;-76
2021/01/07 16:03:40;;;;;;;7.60;3.20;;;;;;;1.76;100.00;98738.55;3790305;76;396269;-77
2021/01/07 16:09:01;;;;;;;1.13;1.03;;;;;;;1.71;100.00;98736.08;3790692;76;391915;-76
2021/01/07 16:14:24;;;;;;;6.00;1.43;;;;;;;1.75;100.00;98736.97;3790719;76;383530;-77
2021/01/07 16:19:46;;;;;;;2.10;1.50;;;;;;;1.69;100.00;98743.22;3790225;76;394053;-76
2021/01/07 16:25:09;;;;;;;0.90;0.60;;;;;;;1.65;100.00;98740.20;3791649;76;383848;-77
2021/01/07 16:30:32;;;;;;;2.80;1.80;;;;;;;1.61;100.00;98736.63;3753416;76;395105;-76
2021/01/07 16:35:54;;;;;;;7.47;3.43;;;;;;;1.57;100.00;98735.73;3765195;77;396320;-76
2021/01/07 16:41:16;;;;;;;0.90;0.70;;;;;;;1.57;100.00;98727.02;3790722;76;392168;-76
2021/01/07 16:46:37;;;;;;;1.77;1.67;;;;;;;1.58;100.00;98727.23;3790311;76;394200;-76
2021/01/07 16:52:02;;;;;;;2.00;1.80;;;;;;;1.56;100.00;98727.95;3790081;77;394182;-76
2021/01/07 16:57:23;;;;;;;1.03;0.93;;;;;;;1.64;100.00;98728.58;3791057;76;383765;-76
2021/01/07 17:02:45;;;;;;;2.93;1.23;;;;;;;1.60;100.00;98728.27;3790197;76;394987;-76
2021/01/07 17:08:06;;;;;;;2.60;1.60;;;;;;;1.60;100.00;98725.56;3789890;76;395046;-76
2021/01/07 17:13:27;;;;;;;3.57;3.27;;;;;;;1.54;100.00;98720.16;3790500;76;387690;-76
2021/01/07 17:18:48;;;;;;;1.03;0.93;;;;;;;1.56;100.00;98726.02;3790367;76;391910;-75
2021/01/07 17:24:10;;;;;;;6.12;3.42;;;;;;;1.53;100.00;98728.09;3736516;76;3833458;-75
2021/01/07 17:29:32;;;;;;;2.60;1.63;;;;;;;1.64;100.00;98730.48;3769021;76;389917;-75
2021/01/07 17:34:53;;;;;;;2.17;2.03;;;;;;;1.52;100.00;98725.16;3789988;76;396383;-75
2021/01/07 17:40:14;;;;;;;1.23;1.13;;;;;;;1.48;100.00;98721.55;3790708;76;385659;-75
2021/01/07 17:45:35;;;;;;;1.10;1.00;;;;;;;1.47;100.00;98724.05;3790430;76;396150;-75
2021/01/07 17:50:57;;;;;;;1.17;1.07;;;;;;;1.49;100.00;98725.84;3790382;76;393978;-75
2021/01/07 17:56:19;;;;;;;1.10;1.00;;;;;;;1.53;100.00;98722.67;3790371;76;388026;-76
2021/01/07 18:01:40;;;;;;;1.87;1.17;;;;;;;1.48;100.00;98724.27;3790516;76;395070;-76
2021/01/07 18:07:01;;;;;;;2.10;2.00;;;;;;;1.47;100.00;98721.91;3790544;76;387978;-75
2021/01/07 18:12:23;;;;;;;1.00;0.90;;;;;;;1.47;100.00;98717.27;3791053;76;383541;-75
2021/01/07 18:17:44;;;;;;;10.43;3.20;;;;;;;1.44;100.00;98720.70;3790218;76;396132;-75
2021/01/07 18:23:05;;;;;;;2.90;2.40;;;;;;;1.43;100.00;98716.41;3788912;76;387733;-76
2021/01/07 18:28:26;;;;;;;4.30;1.47;;;;;;;1.42;100.00;98717.54;3790604;76;383565;-76
2021/01/07 18:33:47;;;;;;;2.43;1.20;;;;;;;1.50;100.00;98721.20;3790405;76;395077;-76
2021/01/07 18:39:09;;;;;;;1.60;1.50;;;;;;;1.42;100.00;98724.31;3801013;76;394280;-77
2021/01/07 18:44:31;;;;;;;6.40;2.00;;;;;;;1.41;100.00;98710.55;3858939;74;393997;-77
2021/01/07 18:49:52;;;;;;;1.00;0.63;;;;;;;1.38;100.00;98720.71;3854444;76;387723;-76
2021/01/07 18:55:14;;;;;;;1.70;1.03;;;;;;;1.43;100.00;98714.25;3853525;75;390859;-76
2021/01/07 19:00:35;;;;;;;0.90;0.80;;;;;;;1.38;100.00;98715.88;3854098;75;392100;-76
2021/01/07 19:05:57;;;;;;;1.67;1.57;;;;;;;1.38;100.00;98713.16;3853304;76;396126;-76
2021/01/07 19:11:18;;;;;;;3.17;1.33;;;;;;;1.39;100.00;98710.67;3853680;76;383582;-76
2021/01/07 19:16:39;;;;;;;1.30;1.20;;;;;;;1.40;100.00;98706.83;3853486;76;396094;-76
2021/01/07 19:22:00;;;;;;;2.37;1.53;;;;;;;1.42;100.00;98706.70;3853132;75;393984;-76
2021/01/07 19:27:22;;;;;;;4.03;1.73;;;;;;;1.37;100.00;98711.58;3853558;76;396341;-76
2021/01/07 19:32:43;;;;;;;1.40;1.30;;;;;;;1.41;100.00;98711.89;3853582;75;389836;-76
2021/01/07 19:38:04;;;;;;;1.20;1.10;;;;;;;1.37;100.00;98705.61;3853317;76;396043;-76
2021/01/07 19:43:25;;;;;;;1.60;1.20;;;;;;;1.36;100.00;98707.30;3854171;75;386712;-76
2021/01/07 19:48:46;;;;;;;5.83;1.97;;;;;;;1.38;100.00;98705.80;3853488;75;394011;-76
2021/01/07 19:54:10;;;;;;;1.00;0.90;;;;;;;1.39;100.00;98704.67;3854477;76;383602;-76
2021/01/07 19:59:31;;;;;;;3.17;0.90;;;;;;;1.31;100.00;98711.63;3853695;76;392918;-76
2021/01/07 20:04:53;;;;;;;2.00;1.90;;;;;;;1.31;100.00;98707.56;3853384;76;396084;-76
2021/01/07 20:10:30;;;;;;;4.37;1.80;;;;;;;1.30;100.00;98705.41;3847691;76;389823;-76
2021/01/07 20:15:47;;;;;;;2.37;2.10;;;;;;;1.29;100.00;98706.56;3853821;75;387676;-75
2021/01/07 20:21:08;;;;;;;1.33;1.00;;;;;;;1.23;100.00;98710.64;3858092;76;390154;-76
2021/01/07 20:26:29;;;;;;;1.63;1.53;;;;;;;1.21;100.00;98710.20;3851747;76;388729;-76
2021/01/07 20:31:50;;;;;;;2.80;2.30;;;;;;;1.30;100.00;98714.11;3853982;75;388765;-76
2021/01/07 20:37:15;;;;;;;2.60;2.37;;;;;;;1.22;100.00;98709.64;3853698;76;394188;-76
2021/01/07 20:42:37;;;;;;;2.30;2.10;;;;;;;1.22;100.00;98707.70;3853502;76;394050;-76
2021/01/07 20:47:58;;;;;;;1.43;1.33;;;;;;;1.14;100.00;98711.36;3853543;76;395097;-76
2021/01/07 20:53:20;;;;;;;1.50;1.40;;;;;;;1.19;100.00;98712.48;3834716;76;396074;-76
2021/01/07 20:58:41;;;;;;;3.90;2.60;;;;;;;1.12;100.00;98706.08;3853497;76;395233;-76
2021/01/07 21:04:02;;;;;;;2.97;2.87;;;;;;;1.12;100.00;98701.47;3853392;75;396074;-76
2021/01/07 21:09:23;;;;;;;5.90;1.87;;;;;;;1.09;100.00;98699.44;3853598;76;396153;-76
2021/01/07 21:14:45;;;;;;;1.90;1.70;;;;;;;1.05;100.00;98694.48;3853609;76;396082;-76
2021/01/07 21:20:08;;;;;;;2.30;2.10;;;;;;;1.10;100.00;98696.95;3852994;75;396075;-76
2021/01/07 21:25:29;;;;;;;4.57;1.73;;;;;;;1.14;100.00;98691.05;3853665;76;394231;-76
2021/01/07 21:30:52;;;;;;;3.30;2.67;;;;;;;1.17;100.00;98693.08;3853490;76;396167;-76
2021/01/07 21:36:16;;;;;;;1.33;1.23;;;;;;;1.20;100.00;98695.66;3853323;75;396031;-76
2021/01/07 21:41:37;;;;;;;2.70;1.60;;;;;;;1.11;100.00;98691.77;3852977;75;396433;-77
2021/01/07 21:46:59;;;;;;;1.43;1.17;;;;;;;1.17;100.00;98694.44;3853810;76;394041;-77
2021/01/07 21:52:21;;;;;;;3.03;1.90;;;;;;;1.19;100.00;98690.81;3852122;76;396349;-77
2021/01/07 21:57:43;;;;;;;1.00;0.70;;;;;;;1.12;100.00;98693.89;3853927;76;391862;-76
2021/01/07 22:03:04;;;;;;;11.03;2.37;;;;;;;1.21;100.00;98693.94;3852109;76;396070;-77
2021/01/07 22:08:26;;;;;;;7.10;1.93;;;;;;;1.19;100.00;98687.30;3852097;76;396079;-77
2021/01/07 22:13:47;;;;;;;4.20;1.13;;;;;;;1.26;100.00;98684.77;3854212;76;386912;-77
2021/01/07 22:19:08;;;;;;;1.23;1.13;;;;;;;1.27;100.00;98679.58;3835245;76;387798;-77
2021/01/07 22:24:29;;;;;;;1.37;1.13;;;;;;;1.24;100.00;98684.36;3853647;76;394005;-77
2021/01/07 22:29:51;;;;;;;2.23;1.80;;;;;;;1.18;100.00;98685.17;3852522;76;396080;-77
2021/01/07 22:35:13;;;;;;;0.80;0.57;;;;;;;1.11;100.00;98681.48;3854824;75;383799;-77
2021/01/07 22:40:34;;;;;;;5.27;1.73;;;;;;;1.14;100.00;98682.92;3853512;76;392173;-77
2021/01/07 22:45:56;;;;;;;1.00;0.77;;;;;;;1.14;100.00;98682.92;3854241;76;383784;-77
2021/01/07 22:51:22;;;;;;;1.30;1.20;;;;;;;1.17;100.00;98682.82;3853325;76;396500;-77
2021/01/07 22:56:43;;;;;;;3.13;2.87;;;;;;;1.12;100.00;98686.57;3853168;76;396157;-77
2021/01/07 23:02:04;;;;;;;1.47;1.37;;;;;;;1.15;100.00;98682.37;3853923;75;383799;-77
2021/01/07 23:07:27;;;;;;;2.40;1.13;;;;;;;1.16;100.00;98681.25;3853706;75;394014;-77
2021/01/07 23:12:48;;;;;;;0.90;0.70;;;;;;;1.13;100.00;98684.05;3854232;76;387680;-77
2021/01/07 23:18:10;;;;;;;7.30;1.90;;;;;;;1.11;100.00;98676.06;3853979;76;391874;-77
2021/01/07 23:23:31;;;;;;;1.17;1.07;;;;;;;1.13;100.00;98681.34;3854196;76;383550;-77
2021/01/07 23:28:52;;;;;;;0.87;0.87;;;;;;;1.06;100.00;98683.88;3854618;76;392086;-77
2021/01/07 23:34:14;;;;;;;6.30;1.63;;;;;;;1.02;100.00;98677.59;3853661;76;392974;-77
2021/01/07 23:39:35;;;;;;;1.30;0.90;;;;;;;0.98;100.00;98679.98;3853696;76;394184;-77
2021/01/07 23:44:57;;;;;;;3.70;2.77;;;;;;;0.87;100.00;98674.28;3853901;75;383772;-78
2021/01/07 23:50:18;;;;;;;0.80;0.63;;;;;;;0.88;100.00;98673.70;3854973;76;383958;-78
2021/01/07 23:55:40;;;;;;;1.53;1.43;;;;;;;0.88;100.00;98665.03;3853982;75;383583;-77
